createdAt,value
2022-08-03T00:01:46.310Z,25.28
2022-08-03T00:04:50.695Z,25.31
2022-08-03T00:07:55.028Z,25.38
2022-08-03T00:10:59.990Z,25.48
2022-08-03T00:14:05.488Z,25.57
2022-08-03T00:17:09.620Z,25.69
2022-08-03T00:20:13.879Z,25.75
2022-08-03T00:23:18.633Z,25.94
2022-08-03T00:26:23.014Z,25.81
2022-08-03T00:29:27.275Z,25.95
2022-08-03T00:32:31.736Z,26.35
2022-08-03T00:35:50.401Z,26.48
2022-08-03T00:38:55.946Z,26.51
2022-08-03T00:42:03.539Z,26.46
2022-08-03T00:45:08.063Z,26.22
2022-08-03T00:48:19.771Z,25.98
2022-08-03T00:51:37.266Z,25.92
2022-08-03T00:54:42.246Z,26.42
2022-08-03T00:57:46.612Z,28.11
2022-08-03T01:00:50.988Z,29.40
2022-08-03T01:03:55.157Z,29.70
2022-08-03T01:07:16.664Z,30.08
2022-08-03T01:10:32.355Z,30.39
2022-08-03T01:14:02.361Z,30.74
2022-08-03T01:17:09.020Z,30.26
2022-08-03T01:20:14.596Z,30.08
2022-08-03T01:23:39.012Z,29.70
2022-08-03T01:27:03.524Z,29.06
2022-08-03T01:30:09.597Z,28.68
2022-08-03T01:33:29.495Z,28.51
2022-08-03T01:36:35.299Z,28.30
2022-08-03T01:39:40.896Z,28.14
2022-08-03T01:42:45.936Z,27.91
2022-08-03T01:45:51.683Z,27.52
2022-08-03T01:48:56.667Z,27.53
2022-08-03T01:52:03.894Z,28.02
2022-08-03T01:55:09.540Z,28.68
2022-08-03T01:58:16.410Z,28.53
2022-08-03T02:01:22.092Z,28.40
2022-08-03T02:04:27.622Z,28.85
2022-08-03T02:07:33.507Z,29.00
2022-08-03T02:10:38.996Z,29.88
2022-08-03T02:13:43.787Z,29.50
2022-08-03T02:16:48.223Z,29.65
2022-08-03T02:19:53.154Z,29.19
2022-08-03T02:22:57.332Z,29.56
2022-08-03T02:26:03.690Z,29.94
2022-08-03T02:29:10.258Z,30.24
2022-08-03T02:32:15.937Z,30.24
2022-08-03T02:35:22.398Z,30.38
2022-08-03T02:38:29.592Z,29.72
2022-08-03T02:41:38.609Z,30.07
2022-08-03T02:44:48.641Z,29.89
2022-08-03T02:47:54.948Z,30.46
2022-08-03T02:51:00.815Z,30.45
2022-08-03T02:54:06.409Z,30.55
2022-08-03T02:57:11.443Z,30.47
2022-08-03T03:00:27.309Z,30.23
2022-08-03T03:03:44.708Z,30.53
2022-08-03T03:06:50.233Z,30.64
2022-08-03T03:09:55.175Z,30.57
2022-08-03T03:12:59.871Z,30.86
2022-08-03T03:16:05.813Z,30.95
2022-08-03T03:19:11.258Z,30.88
2022-08-03T03:22:16.158Z,30.93
2022-08-03T03:25:20.965Z,30.67
2022-08-03T03:28:26.727Z,30.47
2022-08-03T03:31:31.085Z,30.39
2022-08-03T03:34:35.778Z,30.58
2022-08-03T03:37:40.147Z,30.57
2022-08-03T03:40:44.557Z,30.46
2022-08-03T03:43:50.631Z,30.55
2022-08-03T03:46:56.179Z,30.52
2022-08-03T03:50:00.627Z,30.54
2022-08-03T03:53:05.744Z,30.40
2022-08-03T03:56:13.647Z,30.28
2022-08-03T03:59:18.140Z,30.54
2022-08-03T04:02:22.420Z,30.58
2022-08-03T04:05:46.003Z,30.74
2022-08-03T04:09:08.590Z,30.91
2022-08-03T04:12:13.466Z,30.85
2022-08-03T04:15:19.246Z,30.63
2022-08-03T04:18:24.072Z,30.22
2022-08-03T04:21:30.246Z,29.86
2022-08-03T04:24:36.492Z,29.56
2022-08-03T04:27:42.720Z,29.46
2022-08-03T04:30:49.750Z,29.16
2022-08-03T04:33:54.816Z,29.06
2022-08-03T04:37:04.340Z,28.75
2022-08-03T04:40:10.677Z,28.38
2022-08-03T04:43:16.546Z,27.57
2022-08-03T04:46:24.003Z,26.58
2022-08-03T04:49:28.529Z,25.58
2022-08-03T04:52:33.227Z,25.84
2022-08-03T04:55:37.462Z,26.19
2022-08-03T04:58:41.750Z,26.40
2022-08-03T05:01:46.054Z,26.33
2022-08-03T05:04:50.539Z,26.37
2022-08-03T05:14:54.035Z,26.71
2022-08-03T05:21:52.015Z,26.75
2022-08-03T05:24:57.777Z,27.04
2022-08-03T05:28:02.498Z,26.74
2022-08-03T05:31:06.815Z,25.72
2022-08-03T05:34:11.360Z,25.36
2022-08-03T05:37:18.800Z,25.04
2022-08-03T05:40:23.605Z,24.73
2022-08-03T05:43:28.180Z,24.24
2022-08-03T05:46:33.256Z,24.49
2022-08-03T05:49:38.299Z,24.58
2022-08-03T05:52:44.233Z,23.87
2022-08-03T05:55:54.200Z,23.88
2022-08-03T05:59:16.353Z,24.20
2022-08-03T06:02:24.771Z,24.39
2022-08-03T06:05:29.886Z,24.57
2022-08-03T06:08:35.920Z,24.97
2022-08-03T06:11:43.376Z,24.93
2022-08-03T06:14:51.302Z,24.92
2022-08-03T06:18:01.791Z,24.79
2022-08-03T06:26:31.116Z,24.84
2022-08-03T06:29:36.012Z,24.87
2022-08-03T06:32:42.576Z,24.76
2022-08-03T06:35:56.833Z,24.65
2022-08-03T06:39:02.405Z,24.23
2022-08-03T06:42:07.278Z,24.57
2022-08-03T06:45:15.499Z,24.79
2022-08-03T06:48:20.134Z,24.74
2022-08-03T06:52:04.415Z,24.84
2022-08-03T06:54:49.708Z,24.99
2022-08-03T06:57:54.344Z,25.17
2022-08-03T07:01:04.348Z,25.32
2022-08-03T07:17:11.743Z,24.82
2022-08-03T07:20:18.714Z,25.00
2022-08-03T07:23:23.409Z,24.75
2022-08-03T07:26:27.966Z,25.41
2022-08-03T07:29:34.627Z,25.88
2022-08-03T07:32:50.421Z,25.94
2022-08-03T07:35:55.498Z,26.00
2022-08-03T07:39:00.204Z,25.98
2022-08-03T07:42:19.547Z,25.93
2022-08-03T07:45:24.632Z,25.85
2022-08-03T07:48:29.371Z,25.79
2022-08-03T08:01:24.249Z,26.08
2022-08-03T08:04:28.970Z,25.93
2022-08-03T08:07:33.636Z,25.71
2022-08-03T08:10:38.546Z,25.49
2022-08-03T08:13:43.678Z,25.51
2022-08-03T08:16:49.160Z,25.54
2022-08-03T08:19:53.980Z,25.59
2022-08-03T08:23:01.874Z,25.61
2022-08-03T08:26:07.682Z,25.65
2022-08-03T08:29:13.263Z,25.55
2022-08-03T08:32:18.158Z,25.54
2022-08-03T08:35:22.814Z,25.67
2022-08-03T08:38:27.942Z,25.59
2022-08-03T08:41:34.868Z,25.42
2022-08-03T08:44:39.551Z,25.49
2022-08-03T08:47:51.038Z,25.29
2022-08-03T08:50:58.845Z,25.05
2022-08-03T08:54:08.149Z,25.05
2022-08-03T08:57:40.451Z,25.13
2022-08-03T09:00:38.011Z,25.11
2022-08-03T09:03:43.115Z,25.02
2022-08-03T09:07:04.375Z,24.86
2022-08-03T09:10:14.301Z,25.01
2022-08-03T09:13:19.289Z,24.88
2022-08-03T09:16:23.792Z,24.60
2022-08-03T09:19:28.455Z,24.89
2022-08-03T09:22:34.320Z,25.05
2022-08-03T09:25:41.484Z,24.37
2022-08-03T09:29:01.491Z,25.08
2022-08-03T09:32:09.049Z,25.17
2022-08-03T09:35:16.113Z,24.90
2022-08-03T09:38:28.884Z,25.13
2022-08-03T09:41:35.282Z,25.22
2022-08-03T09:44:45.114Z,25.20
2022-08-03T09:47:49.730Z,25.11
2022-08-03T09:51:13.252Z,25.16
2022-08-03T09:54:36.997Z,25.09
2022-08-03T09:57:47.962Z,24.58
2022-08-03T10:01:05.452Z,24.71
2022-08-03T10:04:15.807Z,24.66
2022-08-03T10:07:23.069Z,24.64
2022-08-03T10:10:29.878Z,24.48
2022-08-03T10:13:38.569Z,24.35
2022-08-03T10:16:43.149Z,24.53
2022-08-03T10:19:49.626Z,24.61
2022-08-03T10:22:54.620Z,24.59
2022-08-03T10:26:02.503Z,24.32
2022-08-03T10:29:13.511Z,24.39
2022-08-03T10:32:28.383Z,24.34
2022-08-03T10:35:34.264Z,24.24
2022-08-03T10:38:57.896Z,24.07
2022-08-03T10:42:03.406Z,24.11
2022-08-03T10:45:20.284Z,24.06
2022-08-03T10:48:26.674Z,23.69
2022-08-03T10:51:33.678Z,23.84
2022-08-03T10:55:07.804Z,23.81
2022-08-03T10:58:15.711Z,23.44
2022-08-03T11:01:58.658Z,23.05
2022-08-03T11:05:30.753Z,23.49
2022-08-03T11:08:35.789Z,23.57
2022-08-03T11:11:44.254Z,23.40
2022-08-03T11:14:49.976Z,23.53
2022-08-03T11:18:11.731Z,23.53
2022-08-03T11:21:16.475Z,23.56
2022-08-03T11:24:44.624Z,23.40
2022-08-03T11:27:49.222Z,23.34
2022-08-03T11:30:53.987Z,23.29
2022-08-03T11:34:09.344Z,23.33
2022-08-03T11:37:31.550Z,23.35
2022-08-03T11:40:52.375Z,23.37
2022-08-03T11:43:56.854Z,23.35
2022-08-03T11:47:02.681Z,23.32
2022-08-03T11:50:08.117Z,23.26
2022-08-03T11:53:18.007Z,23.23
2022-08-03T11:56:22.702Z,23.27
2022-08-03T11:59:34.891Z,23.22
2022-08-03T12:02:39.536Z,23.12
2022-08-03T12:22:40.958Z,22.80
2022-08-03T12:25:47.707Z,22.70
2022-08-03T12:28:54.444Z,22.59
2022-08-03T12:31:59.117Z,22.43
2022-08-03T12:35:06.008Z,22.45
2022-08-03T12:38:14.171Z,22.84
2022-08-03T12:41:30.526Z,22.68
2022-08-03T12:44:37.798Z,22.69
2022-08-03T12:47:56.669Z,22.54
2022-08-03T12:51:12.314Z,22.54
2022-08-03T12:54:24.248Z,22.53
2022-08-03T12:57:43.123Z,22.65
2022-08-03T13:00:58.031Z,22.61
2022-08-03T13:04:02.829Z,22.63
2022-08-03T13:07:12.654Z,22.60
2022-08-03T13:10:36.047Z,22.44
2022-08-03T13:13:41.312Z,22.32
2022-08-03T13:16:45.989Z,22.36
2022-08-03T13:19:52.268Z,22.32
2022-08-03T13:23:00.818Z,22.39
2022-08-03T13:26:05.743Z,22.47
2022-08-03T13:29:10.592Z,22.29
2022-08-03T13:32:15.163Z,21.97
2022-08-03T13:35:19.908Z,22.08
2022-08-03T13:38:27.194Z,22.09
2022-08-03T13:41:33.049Z,22.15
2022-08-03T13:44:39.207Z,22.30
2022-08-03T13:47:43.860Z,22.17
2022-08-03T13:50:48.504Z,22.09
2022-08-03T13:53:53.262Z,22.14
2022-08-03T13:57:00.760Z,22.17
2022-08-03T14:00:29.255Z,22.25
2022-08-03T14:03:34.522Z,22.21
2022-08-03T14:06:39.052Z,21.92
2022-08-03T14:09:50.425Z,21.79
2022-08-03T14:12:56.625Z,21.63
2022-08-03T14:16:01.447Z,21.84
2022-08-03T14:19:07.447Z,21.91
2022-08-03T14:22:12.761Z,21.80
2022-08-03T14:25:17.299Z,21.71
2022-08-03T14:28:23.797Z,21.87
2022-08-03T14:32:10.321Z,21.85
2022-08-03T14:34:52.958Z,21.75
2022-08-03T14:37:57.727Z,21.63
2022-08-03T14:41:02.612Z,21.56
2022-08-03T14:44:07.146Z,21.46
2022-08-03T14:47:11.742Z,21.59
2022-08-03T14:50:37.135Z,21.66
2022-08-03T14:53:42.549Z,21.59
2022-08-03T14:56:47.294Z,21.45
2022-08-03T14:59:56.207Z,21.29
2022-08-03T15:03:02.002Z,21.06
2022-08-03T15:06:06.600Z,21.10
2022-08-03T15:09:23.533Z,21.27
2022-08-03T15:12:29.504Z,21.32
2022-08-03T15:15:34.228Z,21.29
2022-08-03T15:18:38.810Z,21.34
2022-08-03T15:21:46.539Z,21.46
2022-08-03T15:24:52.005Z,21.40
2022-08-03T15:28:04.018Z,21.43
2022-08-03T15:31:09.406Z,21.40
2022-08-03T15:34:14.112Z,21.15
2022-08-03T15:37:19.390Z,21.06
2022-08-03T15:40:23.735Z,20.93
2022-08-03T15:43:28.243Z,21.09
2022-08-03T15:46:32.801Z,21.25
2022-08-03T15:49:37.384Z,21.27
2022-08-03T15:52:42.007Z,21.18
2022-08-03T15:55:46.612Z,20.88
2022-08-03T15:59:03.925Z,20.95
2022-08-03T16:02:16.258Z,21.08
2022-08-03T16:05:21.036Z,21.09
2022-08-03T16:08:26.008Z,21.23
2022-08-03T16:11:30.351Z,21.26
2022-08-03T16:14:44.897Z,21.03
2022-08-03T16:17:56.520Z,21.09
2022-08-03T16:21:01.651Z,21.08
2022-08-03T16:24:07.374Z,21.14
2022-08-03T16:27:55.864Z,21.16
2022-08-03T16:30:46.691Z,21.13
2022-08-03T16:33:51.319Z,21.15
2022-08-03T16:36:55.911Z,21.09
2022-08-03T16:40:00.558Z,21.01
2022-08-03T16:43:17.824Z,20.88
2022-08-03T16:46:24.174Z,20.73
2022-08-03T16:49:54.353Z,20.32
2022-08-03T16:52:53.102Z,20.46
2022-08-03T16:55:59.722Z,20.30
2022-08-03T16:59:05.619Z,20.42
2022-08-03T17:02:21.126Z,20.53
2022-08-03T17:05:43.813Z,20.65
2022-08-03T17:08:55.526Z,20.84
2022-08-03T17:12:00.426Z,20.92
2022-08-03T17:15:06.279Z,20.89
2022-08-03T17:18:19.098Z,20.77
2022-08-03T17:21:32.438Z,20.77
2022-08-03T17:24:42.324Z,20.73
2022-08-03T17:28:49.702Z,20.72
2022-08-03T17:31:23.565Z,20.63
2022-08-03T17:34:37.308Z,20.73
2022-08-03T17:37:58.240Z,20.68
2022-08-03T17:41:10.907Z,20.43
2022-08-03T17:44:32.014Z,20.37
2022-08-03T17:47:43.483Z,20.51
2022-08-03T17:50:56.073Z,20.53
2022-08-03T17:54:18.529Z,20.41
2022-08-03T17:58:02.426Z,20.51
2022-08-03T18:02:00.017Z,20.52
2022-08-03T18:05:16.617Z,20.34
2022-08-03T18:08:30.909Z,20.50
2022-08-03T18:11:39.488Z,20.64
2022-08-03T18:14:57.860Z,20.67
2022-08-03T18:18:10.551Z,20.72
2022-08-03T18:22:02.065Z,20.74
2022-08-03T18:25:00.694Z,20.56
2022-08-03T18:28:16.252Z,20.68
2022-08-03T18:32:00.207Z,20.68
2022-08-03T18:34:53.840Z,20.56
2022-08-03T18:38:00.959Z,20.54
2022-08-03T18:41:13.243Z,20.45
2022-08-03T18:44:53.161Z,20.30
2022-08-03T18:47:52.048Z,20.24
2022-08-03T18:51:28.883Z,20.31
2022-08-03T18:55:01.079Z,20.45
2022-08-03T18:58:15.834Z,20.37
2022-08-03T19:02:00.186Z,20.24
2022-08-03T19:05:09.110Z,20.23
2022-08-03T19:08:26.147Z,20.28
2022-08-03T19:15:12.987Z,20.01
2022-08-03T19:18:19.069Z,20.12
2022-08-03T19:21:24.141Z,20.20
2022-08-03T19:24:30.677Z,20.06
2022-08-03T19:27:36.421Z,20.16
2022-08-03T19:30:46.169Z,20.16
2022-08-03T19:33:59.674Z,20.06
2022-08-03T19:37:04.927Z,19.99
2022-08-03T19:40:12.356Z,19.92
2022-08-03T19:43:49.346Z,20.02
2022-08-03T19:47:07.980Z,20.04
2022-08-03T19:50:14.166Z,20.02
2022-08-03T19:53:43.000Z,19.93
2022-08-03T19:56:53.779Z,19.64
2022-08-03T20:00:04.021Z,20.07
2022-08-03T20:03:21.694Z,20.12
2022-08-03T20:06:34.291Z,20.20
2022-08-03T20:09:44.643Z,20.14
2022-08-03T20:12:50.700Z,20.28
2022-08-03T20:15:55.231Z,20.27
2022-08-03T20:19:01.951Z,20.20
2022-08-03T20:22:08.264Z,20.16
2022-08-03T20:25:24.335Z,20.24
2022-08-03T20:28:57.505Z,20.17
2022-08-03T20:32:02.791Z,20.17
2022-08-03T20:35:09.918Z,19.97
2022-08-03T20:38:16.313Z,20.29
2022-08-03T20:41:21.984Z,20.48
2022-08-03T20:44:26.839Z,20.48
2022-08-03T20:47:32.746Z,20.49
2022-08-03T20:50:40.623Z,20.49
2022-08-03T20:53:59.744Z,20.48
2022-08-03T21:00:34.062Z,20.65
2022-08-03T21:03:40.786Z,20.79
2022-08-03T21:07:14.720Z,20.95
2022-08-03T21:10:27.910Z,21.00
2022-08-03T21:13:07.827Z,20.51
2022-08-03T21:13:10.710Z,20.08
2022-08-03T21:13:56.580Z,20.89
2022-08-03T21:17:14.007Z,20.93
2022-08-03T21:20:31.548Z,21.14
2022-08-03T21:23:48.930Z,21.33
2022-08-03T21:26:55.985Z,21.44
2022-08-03T21:30:03.983Z,21.61
2022-08-03T21:33:08.580Z,21.71
2022-08-03T21:36:13.528Z,21.75
2022-08-03T21:39:18.055Z,21.84
2022-08-03T21:42:26.546Z,21.95
2022-08-03T21:45:32.917Z,22.09
2022-08-03T21:48:42.977Z,22.21
2022-08-03T21:51:51.497Z,22.58
2022-08-03T21:54:58.165Z,22.77
2022-08-03T21:58:06.857Z,22.83
2022-08-03T22:01:13.052Z,22.87
2022-08-03T22:04:50.560Z,23.06
2022-08-03T22:07:46.283Z,22.91
2022-08-03T22:10:50.970Z,22.98
2022-08-03T22:13:55.455Z,23.15
2022-08-03T22:17:00.742Z,23.32
2022-08-03T22:20:15.212Z,23.40
2022-08-03T22:23:23.782Z,23.42
2022-08-03T22:26:34.113Z,23.58
2022-08-03T22:29:43.293Z,23.66
2022-08-03T22:32:50.597Z,23.87
2022-08-03T22:35:59.995Z,24.45
2022-08-03T22:39:04.894Z,25.58
2022-08-03T22:42:10.354Z,26.49
2022-08-03T22:46:07.617Z,27.04
2022-08-03T22:48:41.621Z,26.53
2022-08-03T22:51:46.909Z,26.74
2022-08-03T22:54:53.180Z,26.85
2022-08-03T22:57:57.943Z,26.30
2022-08-03T23:01:14.018Z,26.09
2022-08-03T23:04:20.743Z,26.02
2022-08-03T23:07:32.698Z,26.01
2022-08-03T23:10:41.512Z,25.93
2022-08-03T23:13:55.098Z,25.66
2022-08-03T23:17:04.980Z,25.66
2022-08-03T23:20:11.038Z,25.65
2022-08-03T23:23:19.845Z,25.98
2022-08-03T23:26:27.655Z,25.62
2022-08-03T23:29:35.025Z,25.62
2022-08-03T23:32:43.011Z,26.00
2022-08-03T23:36:28.962Z,27.18
2022-08-03T23:39:35.114Z,27.54
2022-08-03T23:42:42.233Z,28.20
2022-08-03T23:45:49.303Z,29.30
2022-08-03T23:48:56.250Z,29.41
2022-08-03T23:52:15.973Z,30.41
2022-08-03T23:55:36.979Z,31.36
2022-08-03T23:58:54.271Z,30.89
